Terminal Aerodrome Forecast
Issued by NWS

Home | Current Version | Previous Version | Text Only | Print | Product List | Glossary On
Versions: 1 2 3 4 5 6 7 8 9 10 11 12 13
000
FTUS43 KICT 060105 AAA
TAFCNU
TAF AMD
KCNU 060105Z 0601/0624 15007KT P6SM VCTS SCT050CB OVC100
     FM060800 15013KT P6SM -RA SCT040 OVC080
     FM061200 17022G26KT P6SM SCT015 OVC080
     FM061400 17022G26KT 5SM -RA VCTS OVC013CB=

USA.gov is the U.S. government's official web portal to all federal, state and local government web resources and services.